TAF

TERMINAL AERODROME FORECAST
STASIUN METEOROLOGI HANG NADIM BATAM

ADDS - METARS form results

(1010 UTC 17 November 2019)
Data provider http://aviationweather.gov/metar/data/
 
METAR text: WIDD 170930Z 07003KT 9999 FEW014 30/23 Q1010
Conditions at: WIDD (HANG NADIM , ID) observed 0930 UTC 17 November 2019
Temperature: 30.0°C (86°F)
Dewpoint: 23.0°C (73°F) [RH = 66%]
Pressure (altimeter): 29.82 inches Hg (1010.0 mb)
Winds: from the ENE (70 degrees) at 3 MPH (3 knots; 1.5 m/s)
Visibility: 6 or more miles (10+ km)
Ceiling: at least 12,000 feet AGL
Clouds: few clouds at 1400 feet AGL
Weather: no significant weather observed at this time

Forecast for: WIDD (HANG NADIM , ID)
Text: TAF WIDD 170500Z 1706/1806 05004KT 9999 SCT014
Forecast period: 0600 UTC 17 November 2019 to 0600 UTC 18 November 2019
Forecast type: FROM: standard forecast or significant change
Winds: from the NE (50 degrees) at 5 MPH (4 knots; 2.1 m/s)
Visibility: 6 or more miles 10+ km)
Ceiling: at least 12,000 feet AGL
Clouds: scattered clouds at 1400 feet AGL
Weather: no significant weather forecast for this period

Informasi TAF dapat diakses juga di http://aviation.bmkg.go.id